Time;durP1;ratioP1;P1;durP2;ratioP2;P2;SDS_P1;SDS_P2;PMS_P1;PMS_P2;Temp;Humidity;BMP_temperature;BMP_pressure;BME280_temperature;BME280_humidity;BME280_pressure;Samples;Min_cycle;Max_cycle;Signal;HPM_P1;HPM_P2
2021/03/11 00:00:35;;;;;;;66.90;33.60;;;-1.00;90.10;;;;;;5058598;28;20234;-62
2021/03/11 00:03:07;;;;;;;69.90;38.30;;;-1.00;90.20;;;;;;5076910;28;20266;-61
2021/03/11 00:05:38;;;;;;;83.75;39.25;;;-0.90;90.20;;;;;;5077459;28;20262;-62
2021/03/11 00:08:05;;;;;;;68.32;39.05;;;-0.90;90.20;;;;;;5079101;28;20211;-62
2021/03/11 00:10:32;;;;;;;73.45;39.75;;;-0.70;90.20;;;;;;5078247;28;20274;-61
2021/03/11 00:12:59;;;;;;;70.85;38.10;;;-0.90;90.40;;;;;;5077200;28;20226;-62
2021/03/11 00:15:26;;;;;;;68.10;38.58;;;-0.20;90.70;;;;;;5079381;28;20664;-61
2021/03/11 00:17:54;;;;;;;77.63;38.08;;;-0.60;90.90;;;;;;5080347;28;20333;-61
2021/03/11 00:20:26;;;;;;;75.45;36.05;;;-1.00;91.00;;;;;;5078923;28;20230;-61
2021/03/11 00:22:53;;;;;;;75.50;37.60;;;-0.90;91.20;;;;;;5076779;28;20512;-63
2021/03/11 00:25:23;;;;;;;66.97;37.80;;;-1.10;91.30;;;;;;5078796;28;20211;-62
2021/03/11 00:27:50;;;;;;;76.72;39.80;;;-1.10;91.50;;;;;;5075524;28;20225;-62
2021/03/11 00:30:18;;;;;;;81.75;42.65;;;-1.20;91.50;;;;;;5079634;28;20479;-62
2021/03/11 00:32:45;;;;;;;73.93;41.05;;;-1.10;91.60;;;;;;5060892;28;20270;-62
2021/03/11 00:35:12;;;;;;;77.90;40.72;;;-1.00;91.80;;;;;;5078962;28;20254;-62
2021/03/11 00:37:40;;;;;;;88.60;42.05;;;-1.20;92.00;;;;;;5058722;28;20401;-60
2021/03/11 00:40:09;;;;;;;87.50;42.03;;;-0.90;92.20;;;;;;5060715;28;20234;-61
2021/03/11 00:42:36;;;;;;;83.57;45.78;;;-1.10;92.30;;;;;;5078928;28;20234;-60
2021/03/11 00:45:04;;;;;;;80.57;42.13;;;-0.90;92.50;;;;;;5078439;28;20231;-60
2021/03/11 00:47:31;;;;;;;77.97;43.42;;;-1.20;92.70;;;;;;5058517;28;20621;-61
2021/03/11 00:49:59;;;;;;;82.72;43.53;;;-1.20;92.80;;;;;;5077127;28;20238;-61
2021/03/11 00:52:25;;;;;;;73.22;41.03;;;-1.20;92.90;;;;;;5077233;28;20702;-61
2021/03/11 00:54:52;;;;;;;83.32;42.55;;;-1.20;93.10;;;;;;5071002;28;20203;-61
2021/03/11 00:57:19;;;;;;;78.72;41.55;;;-1.20;93.40;;;;;;5058852;28;20501;-61
2021/03/11 00:59:45;;;;;;;82.57;44.38;;;-1.30;93.50;;;;;;5073815;28;20271;-61
2021/03/11 01:02:12;;;;;;;87.63;40.95;;;-1.20;93.70;;;;;;5075993;28;20254;-61
2021/03/11 01:04:39;;;;;;;88.90;44.50;;;-1.30;93.80;;;;;;5076104;28;20213;-61
2021/03/11 01:07:06;;;;;;;68.68;36.72;;;0.00;94.10;;;;;;5059056;28;20230;-61
2021/03/11 01:09:32;;;;;;;77.72;40.95;;;-1.20;94.00;;;;;;5077412;28;20555;-60
2021/03/11 01:11:59;;;;;;;85.68;43.35;;;-1.00;94.00;;;;;;5077509;28;20491;-61
2021/03/11 01:14:26;;;;;;;84.95;45.80;;;-1.20;94.00;;;;;;5056739;28;20420;-61
2021/03/11 01:16:53;;;;;;;91.32;42.80;;;-1.30;94.20;;;;;;5078108;28;20203;-61
2021/03/11 01:19:20;;;;;;;71.38;40.88;;;-1.30;94.20;;;;;;5075683;28;20211;-62
2021/03/11 01:21:47;;;;;;;80.15;45.83;;;-1.10;94.40;;;;;;5075998;28;20249;-60
2021/03/11 01:24:16;;;;;;;83.07;39.42;;;-1.30;94.40;;;;;;5077756;28;20211;-62
2021/03/11 01:26:43;;;;;;;80.50;43.60;;;-1.30;94.40;;;;;;5077297;28;20206;-61
2021/03/11 01:29:10;;;;;;;74.70;40.65;;;-1.30;94.40;;;;;;5077827;28;20507;-59
2021/03/11 01:31:37;;;;;;;75.35;37.45;;;-1.20;94.40;;;;;;5077460;28;20242;-62
2021/03/11 01:34:04;;;;;;;75.03;41.38;;;-1.30;94.40;;;;;;5077458;28;20266;-61
2021/03/11 01:36:30;;;;;;;60.95;36.88;;;-1.20;94.40;;;;;;5077184;28;20309;-60
2021/03/11 01:38:57;;;;;;;71.03;37.90;;;-1.30;94.30;;;;;;5073980;28;20211;-61
2021/03/11 01:41:23;;;;;;;76.70;42.00;;;-1.10;94.40;;;;;;5059783;28;20504;-62
2021/03/11 01:43:54;;;;;;;82.18;39.55;;;-1.20;94.30;;;;;;5079501;28;20243;-62
2021/03/11 01:46:25;;;;;;;79.05;45.22;;;-1.10;94.30;;;;;;5075835;28;20302;-60
2021/03/11 01:48:53;;;;;;;73.13;38.78;;;-1.30;94.40;;;;;;5071553;28;20214;-60
2021/03/11 01:51:22;;;;;;;76.03;40.05;;;-1.30;94.50;;;;;;5059493;28;20313;-60
2021/03/11 01:53:50;;;;;;;72.53;39.10;;;-0.40;94.90;;;;;;5077496;28;20263;-61
2021/03/11 01:56:17;;;;;;;68.85;38.38;;;-1.30;94.50;;;;;;5075396;28;20603;-61
2021/03/11 01:58:44;;;;;;;66.63;37.85;;;-1.30;94.50;;;;;;5059001;28;20224;-60
2021/03/11 02:01:11;;;;;;;79.53;40.72;;;-1.30;94.60;;;;;;5075779;28;20227;-60
2021/03/11 02:03:38;;;;;;;79.30;42.80;;;-1.30;94.70;;;;;;5077111;28;20202;-60
2021/03/11 02:06:05;;;;;;;69.63;37.47;;;-1.30;94.70;;;;;;5076913;28;20231;-61
2021/03/11 02:08:32;;;;;;;73.43;44.10;;;-1.30;94.90;;;;;;5077305;28;20301;-61
2021/03/11 02:10:59;;;;;;;74.38;42.65;;;-0.40;95.20;;;;;;5076733;28;20507;-60
2021/03/11 02:13:42;;;;;;;77.28;43.53;;;-1.30;95.00;;;;;;5077687;28;20273;-60
2021/03/11 02:16:27;;;;;;;76.13;42.47;;;-1.40;95.20;;;;;;5076448;28;20211;-59
2021/03/11 02:19:18;;;;;;;92.88;43.88;;;-1.30;95.20;;;;;;5073585;28;20207;-60
2021/03/11 02:21:50;;;;;;;69.35;39.22;;;-1.40;95.30;;;;;;5074077;28;20270;-60
2021/03/11 02:24:56;;;;;;;78.97;43.15;;;-1.40;95.40;;;;;;5076329;28;20231;-60
2021/03/11 02:27:40;;;;;;;74.10;41.17;;;-1.40;95.40;;;;;;5075566;28;20221;-60
2021/03/11 02:30:08;;;;;;;84.28;41.00;;;-1.30;95.40;;;;;;5076435;28;20513;-60
2021/03/11 02:32:36;;;;;;;88.53;45.78;;;-1.30;95.30;;;;;;5075387;28;20203;-61
2021/03/11 02:35:05;;;;;;;70.80;40.45;;;-1.30;95.40;;;;;;5076044;28;20219;-59
2021/03/11 02:37:41;;;;;;;81.85;40.33;;;-1.40;95.40;;;;;;5059220;28;20435;-59
2021/03/11 02:40:12;;;;;;;78.57;41.83;;;-1.30;95.30;;;;;;5076357;28;20205;-59
2021/03/11 02:42:41;;;;;;;89.85;41.85;;;-1.30;95.30;;;;;;5075217;28;20207;-59
2021/03/11 02:45:10;;;;;;;89.43;41.97;;;-1.30;95.30;;;;;;5075599;28;20239;-59
2021/03/11 02:47:38;;;;;;;74.93;41.10;;;-1.30;95.40;;;;;;5076225;28;20202;-60
2021/03/11 02:50:06;;;;;;;73.68;41.40;;;-1.30;95.40;;;;;;5073392;28;20207;-60
2021/03/11 02:52:34;;;;;;;74.80;39.90;;;-1.30;95.30;;;;;;5075878;28;20206;-60
2021/03/11 02:55:21;;;;;;;81.50;42.25;;;-1.20;95.20;;;;;;5074866;28;20210;-59
2021/03/11 02:57:50;;;;;;;73.30;40.75;;;-1.30;95.40;;;;;;5074915;28;20486;-60
2021/03/11 03:00:18;;;;;;;72.80;42.90;;;-1.30;95.50;;;;;;5075864;28;20309;-60
2021/03/11 03:02:46;;;;;;;85.93;46.97;;;-1.40;95.50;;;;;;5058775;28;20206;-60
2021/03/11 03:05:16;;;;;;;71.13;42.83;;;-1.30;95.50;;;;;;5074600;28;20206;-60
2021/03/11 03:07:46;;;;;;;74.25;39.97;;;-1.40;95.60;;;;;;5074877;28;20209;-58
2021/03/11 03:10:18;;;;;;;79.43;42.35;;;-1.40;95.70;;;;;;5076632;28;20207;-59
2021/03/11 03:12:46;;;;;;;77.68;46.63;;;-1.50;95.80;;;;;;5075999;28;20362;-60
2021/03/11 03:15:14;;;;;;;71.55;40.35;;;-1.10;96.00;;;;;;5076972;28;20518;-60
2021/03/11 03:17:44;;;;;;;76.20;38.67;;;-1.40;95.80;;;;;;5080331;28;20209;-61
2021/03/11 03:20:13;;;;;;;83.65;43.70;;;-1.30;95.70;;;;;;5078756;28;20209;-59
2021/03/11 03:22:40;;;;;;;74.53;39.60;;;-1.40;95.70;;;;;;5080533;28;20202;-60
2021/03/11 03:25:12;;;;;;;74.28;40.00;;;-1.40;95.70;;;;;;5079869;28;20202;-61
2021/03/11 03:27:40;;;;;;;93.07;42.13;;;-1.40;95.60;;;;;;5079740;28;20493;-59
2021/03/11 03:30:15;;;;;;;80.80;42.42;;;-1.40;95.50;;;;;;5079398;28;20206;-60
2021/03/11 03:32:42;;;;;;;64.80;38.25;;;-1.40;95.60;;;;;;5062154;28;20202;-59
2021/03/11 03:35:10;;;;;;;69.72;39.70;;;-1.40;95.60;;;;;;5078720;28;20223;-59
2021/03/11 03:37:37;;;;;;;69.55;38.97;;;-1.40;95.60;;;;;;5061169;28;20211;-60
2021/03/11 03:40:06;;;;;;;62.75;38.90;;;-0.50;95.70;;;;;;5076214;28;20210;-60
2021/03/11 03:42:41;;;;;;;70.15;37.97;;;-1.40;95.50;;;;;;5076316;28;20232;-60
2021/03/11 03:45:12;;;;;;;65.95;35.67;;;-1.40;95.50;;;;;;5077475;28;20227;-59
2021/03/11 03:47:42;;;;;;;61.13;36.90;;;-1.50;95.40;;;;;;5078628;28;20203;-60
2021/03/11 03:50:10;;;;;;;70.50;39.83;;;-1.40;95.40;;;;;;5078574;28;20203;-59
2021/03/11 03:52:39;;;;;;;62.83;38.33;;;-1.40;95.20;;;;;;5079541;28;20623;-59
2021/03/11 03:55:09;;;;;;;70.03;37.47;;;-1.20;95.10;;;;;;5077042;28;20203;-59
2021/03/11 03:57:37;;;;;;;66.78;37.55;;;-1.30;94.90;;;;;;5077870;28;20225;-60
2021/03/11 04:00:06;;;;;;;61.83;35.05;;;-1.10;94.70;;;;;;5077201;28;20226;-60
2021/03/11 04:02:35;;;;;;;66.53;37.53;;;-1.10;94.50;;;;;;5079457;28;20230;-60
2021/03/11 04:05:04;;;;;;;60.53;36.13;;;-1.00;94.50;;;;;;5078688;28;20203;-61
2021/03/11 04:07:32;;;;;;;55.58;33.97;;;-1.00;94.20;;;;;;5076687;28;20215;-59
2021/03/11 04:09:59;;;;;;;56.92;34.00;;;-1.00;94.20;;;;;;5079568;28;20203;-59
2021/03/11 04:12:26;;;;;;;56.90;35.33;;;-1.00;94.10;;;;;;5060000;28;20213;-59
2021/03/11 04:14:54;;;;;;;56.85;34.33;;;-0.80;94.10;;;;;;5078926;28;20202;-60
2021/03/11 04:17:22;;;;;;;47.72;31.67;;;-1.00;94.00;;;;;;5060109;28;20214;-60
2021/03/11 04:19:49;;;;;;;63.17;36.08;;;-0.80;93.80;;;;;;5060504;28;20290;-59
2021/03/11 04:22:16;;;;;;;67.35;36.03;;;-0.80;93.70;;;;;;5060792;28;20249;-60
2021/03/11 04:24:43;;;;;;;58.85;34.38;;;-0.80;93.70;;;;;;5058223;28;20367;-60
2021/03/11 04:27:10;;;;;;;64.03;34.08;;;-0.80;93.60;;;;;;5078901;28;20211;-59
2021/03/11 04:29:38;;;;;;;66.70;35.10;;;-0.70;93.50;;;;;;5078118;28;20203;-60
2021/03/11 04:32:06;;;;;;;59.35;33.38;;;-0.70;93.50;;;;;;5078610;28;20206;-61
2021/03/11 04:34:34;;;;;;;58.28;32.22;;;-0.70;93.50;;;;;;5078989;28;20317;-59
2021/03/11 04:37:00;;;;;;;58.00;33.55;;;-0.60;93.40;;;;;;5061330;28;20214;-60
2021/03/11 04:39:27;;;;;;;49.10;31.80;;;-0.60;93.40;;;;;;5079395;28;20220;-60
2021/03/11 04:41:55;;;;;;;60.13;33.05;;;-0.60;93.30;;;;;;5079230;28;20227;-60
2021/03/11 04:44:24;;;;;;;65.70;33.05;;;-0.60;93.30;;;;;;5077123;28;20344;-59
2021/03/11 04:46:52;;;;;;;57.03;31.95;;;-0.50;93.10;;;;;;5078160;28;20203;-60
2021/03/11 04:49:21;;;;;;;46.88;29.33;;;-0.50;93.10;;;;;;5061604;28;20263;-60
2021/03/11 04:51:48;;;;;;;58.20;31.50;;;-0.50;93.00;;;;;;5060552;28;20267;-61
2021/03/11 04:54:17;;;;;;;51.00;28.38;;;-0.20;92.90;;;;;;5078440;28;20390;-61
2021/03/11 04:56:53;;;;;;;51.65;29.67;;;0.30;93.00;;;;;;5074443;28;20206;-60
2021/03/11 04:59:21;;;;;;;51.00;30.00;;;-0.40;92.80;;;;;;5077771;28;20571;-59
2021/03/11 05:01:56;;;;;;;45.85;28.67;;;-0.40;92.60;;;;;;5058755;28;20298;-60
2021/03/11 05:04:24;;;;;;;48.22;28.15;;;-0.30;92.50;;;;;;5078126;28;20195;-60
2021/03/11 05:06:51;;;;;;;52.45;32.35;;;-0.20;92.30;;;;;;5078293;28;20207;-60
2021/03/11 05:09:17;;;;;;;50.75;29.00;;;-0.30;92.30;;;;;;5075672;28;20404;-59
2021/03/11 05:11:44;;;;;;;44.53;29.05;;;-0.30;92.40;;;;;;5078817;28;20211;-59
2021/03/11 05:14:11;;;;;;;44.83;27.60;;;-0.30;92.20;;;;;;5076383;28;20213;-59
2021/03/11 05:16:37;;;;;;;49.35;27.33;;;-0.20;92.20;;;;;;5078054;28;20207;-60
2021/03/11 05:19:05;;;;;;;40.55;25.60;;;-0.20;91.90;;;;;;5077699;28;20214;-60
2021/03/11 05:21:33;;;;;;;42.63;28.15;;;1.00;92.00;;;;;;5077798;28;20215;-61
2021/03/11 05:23:59;;;;;;;50.95;29.35;;;-0.10;91.50;;;;;;5060544;28;20209;-61
2021/03/11 05:26:27;;;;;;;40.67;26.30;;;-0.10;91.40;;;;;;5075634;28;20274;-60
2021/03/11 05:28:54;;;;;;;47.85;27.45;;;-0.10;91.20;;;;;;5078140;28;20211;-60
2021/03/11 05:31:21;;;;;;;44.40;25.20;;;0.00;91.10;;;;;;5073715;28;20207;-59
2021/03/11 05:33:47;;;;;;;47.90;27.13;;;0.00;91.10;;;;;;5066268;28;20306;-60
2021/03/11 05:36:14;;;;;;;33.58;22.60;;;0.10;91.10;;;;;;5072257;28;20199;-60
2021/03/11 05:38:45;;;;;;;47.90;26.25;;;0.10;91.10;;;;;;5070472;28;20210;-60
2021/03/11 05:41:13;;;;;;;41.05;26.77;;;-0.40;90.90;;;;;;5071203;28;20227;-59
2021/03/11 05:43:42;;;;;;;41.70;25.13;;;0.10;91.00;;;;;;5059052;28;20202;-59
2021/03/11 05:46:12;;;;;;;39.65;24.35;;;0.10;90.80;;;;;;5057857;28;20619;-59
2021/03/11 05:48:40;;;;;;;43.60;27.52;;;0.20;90.80;;;;;;5070786;28;20207;-60
2021/03/11 05:51:08;;;;;;;45.42;27.25;;;0.80;90.90;;;;;;5075667;28;20217;-60
2021/03/11 05:53:37;;;;;;;43.65;28.48;;;0.70;90.80;;;;;;5074209;28;20270;-59
2021/03/11 05:56:05;;;;;;;36.72;25.50;;;0.30;90.70;;;;;;5074786;28;20199;-60
2021/03/11 05:58:33;;;;;;;43.38;26.92;;;0.30;90.50;;;;;;5071893;28;20239;-60
2021/03/11 06:01:20;;;;;;;48.53;27.58;;;0.40;90.50;;;;;;5074935;28;20371;-60
2021/03/11 06:03:48;;;;;;;43.28;27.40;;;0.70;90.50;;;;;;5075821;28;20215;-59
2021/03/11 06:06:15;;;;;;;37.40;25.50;;;0.40;90.20;;;;;;5075330;28;20258;-59
2021/03/11 06:08:43;;;;;;;54.60;28.52;;;0.50;90.10;;;;;;5074313;28;20506;-58
2021/03/11 06:11:14;;;;;;;40.95;25.13;;;0.60;90.00;;;;;;5062667;28;20210;-61
2021/03/11 06:13:44;;;;;;;42.85;24.58;;;1.10;90.20;;;;;;5073099;28;20207;-60
2021/03/11 06:16:18;;;;;;;53.83;26.42;;;0.80;89.60;;;;;;5058427;28;20211;-60
2021/03/11 06:18:46;;;;;;;40.47;26.35;;;0.70;89.10;;;;;;5046534;28;20327;-60
2021/03/11 06:21:13;;;;;;;42.50;25.90;;;0.80;88.90;;;;;;5072565;28;20525;-61
2021/03/11 06:23:40;;;;;;;39.17;25.20;;;0.90;88.70;;;;;;5072361;28;20206;-60
2021/03/11 06:26:12;;;;;;;39.25;27.17;;;0.90;88.50;;;;;;5072597;28;20215;-61
2021/03/11 06:28:45;;;;;;;41.97;28.13;;;0.40;87.20;;;;;;5070494;28;20260;-60
2021/03/11 06:31:24;;;;;;;46.25;25.52;;;1.10;87.30;;;;;;5073640;28;20214;-60
2021/03/11 06:33:53;;;;;;;34.45;23.75;;;1.20;87.00;;;;;;5073987;28;20202;-61
2021/03/11 06:36:25;;;;;;;37.95;25.13;;;1.30;86.50;;;;;;5071255;28;20571;-60
2021/03/11 06:38:57;;;;;;;36.28;23.05;;;1.40;85.90;;;;;;5076407;28;20588;-61
2021/03/11 06:41:42;;;;;;;39.45;22.02;;;1.50;85.30;;;;;;5055535;28;20555;-61
2021/03/11 06:44:12;;;;;;;28.13;18.42;;;1.50;84.90;;;;;;5073089;28;20258;-60
2021/03/11 06:46:59;;;;;;;34.38;20.92;;;1.60;84.30;;;;;;5074976;28;20241;-61
2021/03/11 06:49:26;;;;;;;38.25;24.10;;;1.60;84.00;;;;;;5067319;28;20203;-60
2021/03/11 06:52:13;;;;;;;32.10;20.40;;;1.70;84.10;;;;;;5075509;28;20206;-60
2021/03/11 06:54:53;;;;;;;32.80;22.70;;;1.80;83.90;;;;;;5068819;28;20262;-61
2021/03/11 06:57:40;;;;;;;37.67;21.05;;;1.80;83.80;;;;;;5071391;28;20210;-60
2021/03/11 07:00:17;;;;;;;35.53;21.70;;;1.90;83.40;;;;;;5074944;28;20212;-61
2021/03/11 07:02:54;;;;;;;32.42;21.90;;;1.90;83.40;;;;;;5075388;28;20238;-61
2021/03/11 07:05:23;;;;;;;41.88;22.30;;;1.90;83.40;;;;;;5074892;28;20787;-62
2021/03/11 07:08:16;;;;;;;36.75;21.77;;;2.00;83.70;;;;;;5075344;28;20210;-62
2021/03/11 07:10:47;;;;;;;43.75;24.27;;;2.10;83.20;;;;;;5076174;28;20237;-62
2021/03/11 07:13:14;;;;;;;36.22;24.27;;;2.10;83.30;;;;;;5073030;28;20238;-61
2021/03/11 07:15:41;;;;;;;41.75;25.20;;;2.20;83.00;;;;;;5075554;28;20505;-61
2021/03/11 07:18:29;;;;;;;36.97;28.10;;;2.20;83.10;;;;;;5058478;28;20214;-61
2021/03/11 07:20:56;;;;;;;38.28;27.52;;;2.20;82.90;;;;;;5072542;28;20267;-62
2021/03/11 07:23:23;;;;;;;43.65;27.75;;;2.30;83.10;;;;;;5075689;28;20250;-63
2021/03/11 07:25:49;;;;;;;41.75;26.10;;;2.30;82.60;;;;;;5073174;28;20228;-62
2021/03/11 07:28:24;;;;;;;40.63;25.75;;;2.30;82.80;;;;;;5074477;28;20209;-61
2021/03/11 07:30:55;;;;;;;39.42;22.73;;;2.40;82.20;;;;;;5057282;28;20420;-61
2021/03/11 07:33:25;;;;;;;28.58;18.67;;;2.40;81.90;;;;;;5072543;28;20551;-61
2021/03/11 07:36:00;;;;;;;31.25;19.88;;;2.40;81.70;;;;;;5075988;28;20571;-61
2021/03/11 07:38:30;;;;;;;35.65;21.95;;;2.40;82.20;;;;;;5059117;28;20636;-61
2021/03/11 07:41:00;;;;;;;33.47;21.20;;;2.40;82.60;;;;;;5063497;28;20242;-61
2021/03/11 07:43:29;;;;;;;42.22;22.98;;;2.90;82.90;;;;;;5056015;28;20204;-62
2021/03/11 07:46:04;;;;;;;34.10;22.50;;;2.50;82.50;;;;;;5031446;28;20303;-60
2021/03/11 07:48:31;;;;;;;34.13;21.63;;;2.50;82.70;;;;;;5027173;28;20622;-61
2021/03/11 07:50:58;;;;;;;37.45;22.38;;;3.70;83.60;;;;;;5033981;28;20271;-62
2021/03/11 07:53:26;;;;;;;37.88;21.00;;;2.70;82.70;;;;;;5029185;28;20508;-62
2021/03/11 07:55:57;;;;;;;31.88;20.63;;;2.80;82.50;;;;;;5025462;28;20599;-63
2021/03/11 07:58:41;;;;;;;36.63;19.50;;;2.90;82.40;;;;;;5025362;28;20492;-61
2021/03/11 08:01:08;;;;;;;31.65;21.10;;;3.00;82.50;;;;;;5026088;28;20218;-62
2021/03/11 08:03:38;;;;;;;31.40;21.67;;;3.00;82.70;;;;;;5030488;28;20209;-62
2021/03/11 08:06:29;;;;;;;33.85;23.13;;;3.10;82.50;;;;;;5031929;28;20501;-62
2021/03/11 08:08:58;;;;;;;39.30;23.90;;;3.10;82.20;;;;;;5037966;28;20269;-62
2021/03/11 08:11:52;;;;;;;34.10;19.60;;;3.20;82.40;;;;;;5039557;28;20215;-62
2021/03/11 08:14:23;;;;;;;36.10;22.23;;;3.30;81.80;;;;;;5029945;28;20209;-63
2021/03/11 08:16:52;;;;;;;40.65;22.27;;;3.40;81.70;;;;;;5029349;28;20281;-62
2021/03/11 08:19:35;;;;;;;35.17;22.70;;;3.50;81.60;;;;;;5037826;28;20209;-63
2021/03/11 08:22:04;;;;;;;28.67;20.25;;;3.50;81.80;;;;;;5036579;28;20241;-64
2021/03/11 08:24:47;;;;;;;33.95;21.10;;;3.50;82.00;;;;;;5027321;28;20254;-62
2021/03/11 08:27:30;;;;;;;29.45;20.27;;;3.70;81.80;;;;;;5033435;28;20211;-63
2021/03/11 08:29:58;;;;;;;33.35;21.00;;;3.80;81.40;;;;;;5037763;28;20208;-62
2021/03/11 08:32:50;;;;;;;35.00;22.02;;;3.90;81.60;;;;;;5028872;28;20221;-63
2021/03/11 08:35:28;;;;;;;31.90;20.90;;;3.90;81.30;;;;;;5037851;28;20261;-62
2021/03/11 08:37:56;;;;;;;41.30;21.33;;;4.10;80.80;;;;;;5035032;28;20279;-63
2021/03/11 08:40:40;;;;;;;34.92;20.73;;;4.20;81.10;;;;;;5030604;28;20219;-64
2021/03/11 08:43:07;;;;;;;36.35;23.58;;;4.10;81.40;;;;;;5034331;28;20211;-63
2021/03/11 08:45:42;;;;;;;32.78;22.63;;;4.20;81.90;;;;;;5068081;28;20895;-63
2021/03/11 08:48:17;;;;;;;36.67;21.70;;;4.30;81.70;;;;;;5073439;28;20732;-65
2021/03/11 08:50:52;;;;;;;36.17;22.98;;;4.40;81.30;;;;;;5072737;28;20227;-64
2021/03/11 08:53:42;;;;;;;30.92;20.15;;;4.60;81.50;;;;;;5074212;28;20674;-63
2021/03/11 08:56:21;;;;;;;31.60;19.52;;;4.50;81.90;;;;;;5065614;28;20210;-66
2021/03/11 08:58:58;;;;;;;37.35;21.67;;;4.50;82.50;;;;;;5071938;28;20207;-62
2021/03/11 09:01:38;;;;;;;32.63;20.65;;;4.50;82.70;;;;;;5071194;28;20221;-63
2021/03/11 09:04:30;;;;;;;31.30;23.92;;;4.40;83.40;;;;;;5071788;28;20260;-63
2021/03/11 09:07:10;;;;;;;28.85;19.88;;;4.30;84.00;;;;;;5064677;28;20294;-64
2021/03/11 09:09:46;;;;;;;31.02;21.35;;;4.30;84.10;;;;;;5065415;28;20211;-63
2021/03/11 09:12:14;;;;;;;35.13;21.45;;;4.40;84.30;;;;;;5078028;28;20214;-63
2021/03/11 09:14:44;;;;;;;29.45;20.95;;;4.50;83.80;;;;;;5076040;28;20214;-62
2021/03/11 09:17:19;;;;;;;35.15;21.98;;;4.70;84.00;;;;;;5073610;28;20248;-64
2021/03/11 09:19:48;;;;;;;33.13;21.48;;;4.90;83.70;;;;;;5076696;28;20300;-63
2021/03/11 09:22:26;;;;;;;32.95;22.40;;;4.90;83.30;;;;;;5076110;28;20230;-62
2021/03/11 09:25:05;;;;;;;33.40;20.70;;;5.00;82.90;;;;;;5077107;28;20241;-63
2021/03/11 09:27:33;;;;;;;34.65;22.85;;;5.00;83.30;;;;;;5073430;28;20453;-64
2021/03/11 09:30:17;;;;;;;35.60;21.73;;;4.90;83.00;;;;;;5065060;28;20236;-64
2021/03/11 09:32:43;;;;;;;30.58;21.27;;;4.90;83.30;;;;;;5077667;28;20393;-64
2021/03/11 09:35:13;;;;;;;38.80;21.50;;;4.90;83.40;;;;;;5078364;28;20457;-63
2021/03/11 09:37:48;;;;;;;31.10;20.75;;;5.00;83.10;;;;;;5077739;28;20703;-62
2021/03/11 09:40:42;;;;;;;28.00;20.75;;;5.00;83.00;;;;;;5057321;28;20213;-64
2021/03/11 09:43:36;;;;;;;34.83;20.88;;;4.90;84.50;;;;;;5071085;28;20199;-63
2021/03/11 09:46:13;;;;;;;34.65;20.55;;;5.00;86.30;;;;;;5034021;28;20540;-64
2021/03/11 09:48:44;;;;;;;30.95;20.77;;;5.00;86.30;;;;;;5036608;28;20783;-64
2021/03/11 09:51:19;;;;;;;31.95;22.50;;;5.20;85.60;;;;;;5034365;28;20209;-62
2021/03/11 09:53:58;;;;;;;39.58;21.48;;;5.40;85.10;;;;;;5035610;28;20204;-63
2021/03/11 09:56:43;;;;;;;30.60;20.15;;;5.50;84.40;;;;;;5030616;28;20230;-67
2021/03/11 09:59:13;;;;;;;27.05;19.67;;;5.70;84.40;;;;;;5037266;28;20609;-65
2021/03/11 10:01:42;;;;;;;28.40;18.67;;;5.80;83.00;;;;;;5033908;28;20234;-63
2021/03/11 10:04:24;;;;;;;32.67;21.38;;;5.80;82.70;;;;;;5034262;28;20215;-64
2021/03/11 10:07:03;;;;;;;29.45;20.50;;;5.90;82.60;;;;;;5032925;28;20337;-63
2021/03/11 10:09:39;;;;;;;26.67;18.65;;;6.00;81.30;;;;;;5036546;28;20200;-63
2021/03/11 10:12:07;;;;;;;28.77;20.83;;;6.10;81.30;;;;;;5029800;28;20230;-64
2021/03/11 10:14:37;;;;;;;26.98;18.60;;;6.00;81.20;;;;;;5033454;28;20275;-63
2021/03/11 10:17:19;;;;;;;25.70;18.20;;;6.30;80.70;;;;;;5032094;28;20238;-62
2021/03/11 10:19:49;;;;;;;28.05;18.70;;;6.40;79.50;;;;;;5025193;28;20272;-64
2021/03/11 10:22:24;;;;;;;23.02;16.48;;;6.60;79.60;;;;;;5034742;28;20315;-62
2021/03/11 10:24:57;;;;;;;24.90;17.73;;;6.70;78.80;;;;;;5029058;28;20201;-63
2021/03/11 10:27:31;;;;;;;28.23;18.40;;;6.80;79.50;;;;;;5031366;28;20461;-64
2021/03/11 10:30:24;;;;;;;30.63;19.63;;;6.90;80.50;;;;;;5036209;28;20275;-62
2021/03/11 10:32:55;;;;;;;27.00;16.77;;;6.60;81.30;;;;;;5025782;28;20242;-63
2021/03/11 10:35:34;;;;;;;23.75;16.95;;;6.60;81.60;;;;;;5036737;28;20224;-62
2021/03/11 10:38:18;;;;;;;21.17;15.45;;;6.50;81.80;;;;;;5036583;28;20204;-63
2021/03/11 10:40:45;;;;;;;26.45;17.83;;;6.40;80.90;;;;;;5030603;28;20430;-64
2021/03/11 10:43:17;;;;;;;25.98;17.30;;;6.40;81.40;;;;;;5033696;28;20274;-62
2021/03/11 10:45:44;;;;;;;33.03;19.17;;;6.40;80.80;;;;;;5070625;28;20245;-63
2021/03/11 10:48:11;;;;;;;23.25;16.85;;;6.40;80.80;;;;;;5075696;28;20253;-64
2021/03/11 10:50:48;;;;;;;27.25;18.52;;;6.30;81.20;;;;;;5058538;28;20391;-64
2021/03/11 10:53:17;;;;;;;28.20;18.50;;;6.10;82.00;;;;;;5070969;28;20768;-64
2021/03/11 10:55:45;;;;;;;28.35;19.33;;;5.90;82.90;;;;;;5075768;28;20390;-64
2021/03/11 10:58:25;;;;;;;25.33;18.75;;;5.90;83.30;;;;;;5070317;28;20225;-62
2021/03/11 11:01:06;;;;;;;26.48;18.23;;;5.80;84.10;;;;;;5076627;28;20248;-63
2021/03/11 11:03:34;;;;;;;29.50;19.05;;;5.70;85.70;;;;;;5074173;28;20265;-62
2021/03/11 11:06:01;;;;;;;28.13;17.88;;;5.70;89.20;;;;;;5057939;28;20203;-61
2021/03/11 11:08:28;;;;;;;26.25;17.98;;;5.70;87.80;;;;;;5067881;28;20206;-63
2021/03/11 11:10:55;;;;;;;25.38;17.33;;;5.80;87.80;;;;;;5069725;28;20204;-62
2021/03/11 11:13:24;;;;;;;24.90;18.25;;;5.80;87.00;;;;;;5069008;28;20256;-63
2021/03/11 11:15:53;;;;;;;30.00;18.77;;;5.90;87.30;;;;;;5062034;28;20256;-64
2021/03/11 11:18:21;;;;;;;26.92;19.58;;;6.00;87.40;;;;;;5075337;28;20234;-63
2021/03/11 11:20:49;;;;;;;32.35;19.30;;;6.00;86.90;;;;;;5075916;28;20497;-64
2021/03/11 11:23:15;;;;;;;27.00;17.20;;;6.00;86.90;;;;;;5075881;28;20261;-62
2021/03/11 11:25:42;;;;;;;27.15;18.13;;;6.00;86.20;;;;;;5057010;28;20551;-62
2021/03/11 11:28:09;;;;;;;27.13;18.08;;;5.90;86.70;;;;;;5075925;28;20206;-63
2021/03/11 11:30:36;;;;;;;31.20;20.05;;;5.80;86.60;;;;;;5066120;28;20211;-63
2021/03/11 11:33:03;;;;;;;24.85;18.88;;;5.90;86.20;;;;;;5071614;28;21147;-62
2021/03/11 11:35:30;;;;;;;24.13;17.17;;;6.20;85.30;;;;;;5076608;28;20241;-62
2021/03/11 11:37:56;;;;;;;26.08;18.35;;;6.40;83.10;;;;;;5076503;28;20206;-63
2021/03/11 11:40:23;;;;;;;30.15;18.13;;;6.60;82.40;;;;;;5079709;28;20495;-63
2021/03/11 11:42:50;;;;;;;27.63;18.30;;;6.70;81.70;;;;;;5080044;28;20276;-62
2021/03/11 11:45:18;;;;;;;26.80;18.58;;;6.70;80.90;;;;;;5079311;28;20380;-64
2021/03/11 11:47:46;;;;;;;34.50;19.95;;;6.80;80.30;;;;;;5080708;28;20349;-64
2021/03/11 11:50:13;;;;;;;25.75;17.92;;;6.80;80.20;;;;;;5079667;28;20215;-63
2021/03/11 11:52:41;;;;;;;23.55;16.83;;;6.70;80.20;;;;;;5078862;28;20210;-63
2021/03/11 11:55:10;;;;;;;28.58;19.90;;;6.60;80.00;;;;;;5079120;28;20207;-63
2021/03/11 11:57:38;;;;;;;24.90;16.92;;;6.70;80.40;;;;;;5077145;28;20271;-64
2021/03/11 12:00:09;;;;;;;22.85;16.02;;;6.70;79.90;;;;;;5079130;28;20409;-65
2021/03/11 12:02:37;;;;;;;22.98;17.15;;;6.70;81.50;;;;;;5078974;28;20234;-64
2021/03/11 12:05:06;;;;;;;26.30;17.75;;;6.70;80.80;;;;;;5079281;28;20238;-64
2021/03/11 12:07:33;;;;;;;26.33;18.85;;;6.50;81.90;;;;;;5076672;28;20217;-63
2021/03/11 12:10:04;;;;;;;28.23;18.70;;;6.50;82.20;;;;;;5077996;28;20207;-68
2021/03/11 12:12:33;;;;;;;26.23;19.38;;;6.30;83.10;;;;;;5077896;28;20211;-65
2021/03/11 12:15:02;;;;;;;25.45;18.63;;;6.20;84.00;;;;;;5080245;28;20267;-64
2021/03/11 12:17:29;;;;;;;30.40;19.10;;;6.20;84.60;;;;;;5074758;28;20398;-64
2021/03/11 12:19:56;;;;;;;23.35;17.67;;;6.20;88.80;;;;;;5079416;28;20203;-63
2021/03/11 12:22:24;;;;;;;26.60;17.75;;;6.10;89.00;;;;;;5072335;28;20219;-63
2021/03/11 12:24:51;;;;;;;24.25;16.50;;;6.10;90.10;;;;;;5074620;28;20270;-65
2021/03/11 12:27:19;;;;;;;29.85;18.15;;;6.00;90.00;;;;;;5061611;28;20221;-64
2021/03/11 12:29:45;;;;;;;24.15;17.80;;;5.80;90.20;;;;;;5080226;28;20210;-66
2021/03/11 12:32:21;;;;;;;25.20;18.08;;;5.90;90.10;;;;;;5073361;28;20238;-63
2021/03/11 12:34:48;;;;;;;27.45;17.48;;;6.00;89.70;;;;;;5073697;28;20238;-64
2021/03/11 12:37:16;;;;;;;29.05;20.05;;;6.10;90.60;;;;;;5072097;28;20203;-64
2021/03/11 12:39:43;;;;;;;27.60;19.65;;;6.00;91.70;;;;;;5071257;28;20241;-65
2021/03/11 12:42:10;;;;;;;23.83;17.98;;;5.90;91.90;;;;;;5069354;28;20231;-67
2021/03/11 12:44:37;;;;;;;22.35;19.15;;;5.90;92.90;;;;;;5072254;28;20593;-65
2021/03/11 12:47:04;;;;;;;22.20;16.85;;;5.90;92.60;;;;;;5071832;28;20215;-63
2021/03/11 12:49:31;;;;;;;26.15;19.38;;;6.10;93.00;;;;;;5074610;28;20252;-63
2021/03/11 12:51:59;;;;;;;22.60;17.48;;;6.10;93.40;;;;;;5059629;28;20305;-64